createdAt,value
2022-08-30T00:01:36.762Z,15.50
2022-08-30T00:04:39.181Z,20.30
2022-08-30T00:07:41.481Z,22.20
2022-08-30T00:10:44.121Z,22.20
2022-08-30T00:13:46.609Z,23.70
2022-08-30T00:16:48.497Z,25.80
2022-08-30T00:19:50.758Z,24.90
2022-08-30T00:22:52.653Z,25.60
2022-08-30T00:25:54.562Z,24.30
2022-08-30T00:28:56.406Z,24.00
2022-08-30T00:31:58.241Z,23.60
2022-08-30T00:35:00.069Z,17.50
2022-08-30T00:38:02.640Z,16.50
2022-08-30T00:41:05.591Z,16.00
2022-08-30T00:44:08.121Z,14.40
2022-08-30T00:47:10.582Z,15.50
2022-08-30T00:50:15.447Z,15.00
2022-08-30T00:53:21.422Z,14.90
2022-08-30T00:56:25.322Z,15.00
2022-08-30T00:59:27.720Z,17.20
2022-08-30T01:02:31.395Z,17.80
2022-08-30T01:05:33.120Z,17.90
2022-08-30T01:08:35.357Z,18.20
2022-08-30T01:11:38.236Z,19.00
2022-08-30T01:14:40.115Z,19.00
2022-08-30T01:17:44.506Z,19.30
2022-08-30T01:21:10.446Z,20.50
2022-08-30T01:24:13.029Z,19.00
2022-08-30T01:27:16.286Z,19.90
2022-08-30T01:30:18.118Z,19.60
2022-08-30T01:33:20.534Z,20.00
2022-08-30T01:36:22.725Z,21.50
2022-08-30T01:39:25.223Z,20.40
2022-08-30T01:42:28.039Z,19.20
2022-08-30T01:45:29.911Z,20.50
2022-08-30T01:48:31.622Z,22.00
2022-08-30T01:51:33.661Z,20.50
2022-08-30T01:54:38.583Z,19.30
2022-08-30T01:57:41.428Z,13.20
2022-08-30T02:00:43.213Z,16.30
2022-08-30T02:03:45.839Z,16.50
2022-08-30T02:06:47.909Z,16.10
2022-08-30T02:09:50.320Z,16.50
2022-08-30T02:12:52.413Z,17.80
2022-08-30T02:15:57.379Z,20.00
2022-08-30T02:18:59.244Z,22.80
2022-08-30T02:22:00.970Z,21.40
2022-08-30T02:25:05.668Z,25.50
2022-08-30T02:28:12.505Z,27.40
2022-08-30T02:31:19.553Z,27.30
2022-08-30T02:34:22.928Z,26.60
2022-08-30T02:37:24.660Z,24.30
2022-08-30T02:40:26.703Z,26.10
2022-08-30T02:43:28.763Z,26.90
2022-08-30T02:46:33.136Z,26.20
2022-08-30T02:49:35.419Z,26.60
2022-08-30T02:52:38.258Z,26.20
2022-08-30T02:55:40.057Z,25.80
2022-08-30T02:58:43.111Z,25.60
2022-08-30T03:01:44.991Z,24.60
2022-08-30T03:04:46.834Z,24.10
2022-08-30T03:07:48.634Z,25.40
2022-08-30T03:10:51.424Z,23.20
2022-08-30T03:13:53.169Z,23.40
2022-08-30T03:16:55.603Z,22.70
2022-08-30T03:20:00.485Z,20.70
2022-08-30T03:23:02.397Z,24.30
2022-08-30T03:26:04.367Z,26.30
2022-08-30T03:29:06.338Z,24.50
2022-08-30T03:32:08.182Z,25.30
2022-08-30T03:35:10.360Z,25.30
2022-08-30T03:38:12.188Z,23.50
2022-08-30T03:41:14.166Z,22.60
2022-08-30T03:44:15.935Z,22.50
2022-08-30T03:47:17.765Z,22.80
2022-08-30T03:50:19.415Z,24.50
2022-08-30T03:53:21.335Z,26.70
2022-08-30T03:56:22.977Z,26.90
2022-08-30T03:59:25.170Z,27.50
2022-08-30T04:02:27.676Z,28.10
2022-08-30T04:05:29.455Z,29.20
2022-08-30T04:08:31.334Z,24.90
2022-08-30T04:11:33.445Z,21.50
2022-08-30T04:14:35.260Z,24.00
2022-08-30T04:17:37.240Z,25.00
2022-08-30T04:20:39.117Z,26.20
2022-08-30T04:23:40.830Z,27.30
2022-08-30T04:26:43.042Z,30.40
2022-08-30T04:29:44.679Z,27.10
2022-08-30T04:32:46.545Z,23.10
2022-08-30T04:35:49.638Z,21.80
2022-08-30T04:38:51.476Z,22.30
2022-08-30T04:41:53.470Z,20.60
2022-08-30T04:44:55.201Z,22.80
2022-08-30T04:47:57.304Z,22.90
2022-08-30T04:50:59.181Z,22.20
2022-08-30T04:54:00.950Z,21.70
2022-08-30T04:57:02.707Z,20.30
2022-08-30T05:00:11.731Z,21.60
2022-08-30T05:03:14.140Z,22.00
2022-08-30T05:06:16.673Z,23.90
2022-08-30T05:09:19.158Z,22.00
2022-08-30T05:12:20.926Z,24.20
2022-08-30T05:15:23.287Z,24.10
2022-08-30T05:18:25.167Z,22.00
2022-08-30T05:21:28.032Z,18.90
2022-08-30T05:24:29.875Z,17.90
2022-08-30T05:27:31.873Z,15.10
2022-08-30T05:30:35.546Z,15.00
2022-08-30T05:33:38.797Z,14.80
2022-08-30T05:36:40.930Z,14.50
2022-08-30T05:39:46.962Z,13.20
2022-08-30T05:42:53.955Z,13.70
2022-08-30T05:46:05.490Z,14.40
2022-08-30T05:49:07.908Z,13.60
2022-08-30T05:52:10.417Z,12.20
2022-08-30T05:55:13.134Z,12.20
2022-08-30T05:58:15.627Z,11.50
2022-08-30T06:01:21.815Z,12.30
2022-08-30T06:04:23.762Z,11.90
2022-08-30T06:07:25.472Z,11.60
2022-08-30T06:10:27.234Z,10.70
2022-08-30T06:13:29.249Z,11.20
2022-08-30T06:16:31.826Z,10.60
2022-08-30T06:19:33.869Z,10.90
2022-08-30T06:22:36.520Z,11.20
2022-08-30T06:25:41.233Z,10.60
2022-08-30T06:28:44.298Z,11.50
2022-08-30T06:31:46.488Z,10.00
2022-08-30T06:34:51.268Z,9.80
2022-08-30T06:37:56.488Z,11.10
2022-08-30T06:40:58.422Z,10.20
2022-08-30T06:44:02.153Z,10.60
2022-08-30T06:47:05.991Z,11.00
2022-08-30T06:50:11.936Z,10.80
2022-08-30T06:53:14.677Z,10.10
2022-08-30T06:56:17.710Z,9.90
2022-08-30T06:59:19.481Z,10.10
2022-08-30T07:02:21.356Z,9.10
2022-08-30T07:05:23.828Z,8.70
2022-08-30T07:08:26.048Z,7.60
2022-08-30T07:11:31.644Z,7.90
2022-08-30T07:14:33.402Z,8.30
2022-08-30T07:17:54.157Z,7.70
2022-08-30T07:20:57.415Z,7.60
2022-08-30T07:24:00.383Z,7.80
2022-08-30T07:27:02.150Z,8.00
2022-08-30T07:30:06.443Z,8.10
2022-08-30T07:33:11.502Z,8.10
2022-08-30T07:36:15.406Z,8.30
2022-08-30T07:39:17.407Z,8.20
2022-08-30T07:42:19.054Z,6.80
2022-08-30T07:45:20.877Z,8.00
2022-08-30T07:48:22.706Z,7.10
2022-08-30T07:51:25.984Z,7.70
2022-08-30T07:54:27.832Z,7.50
2022-08-30T07:57:33.688Z,6.70
2022-08-30T08:00:35.538Z,7.00
2022-08-30T08:03:39.971Z,6.90
2022-08-30T08:06:42.465Z,7.10
2022-08-30T08:09:44.638Z,7.20
2022-08-30T08:12:47.101Z,6.90
2022-08-30T08:15:49.215Z,7.80
2022-08-30T08:18:52.259Z,7.80
2022-08-30T08:22:20.999Z,7.40
2022-08-30T08:25:23.014Z,6.70
2022-08-30T08:28:25.531Z,7.10
2022-08-30T08:31:33.537Z,6.40
2022-08-30T08:34:36.454Z,6.60
2022-08-30T08:37:39.484Z,6.20
2022-08-30T08:41:07.107Z,6.10
2022-08-30T08:44:18.017Z,6.70
2022-08-30T08:47:29.803Z,6.70
2022-08-30T08:50:32.164Z,5.90
2022-08-30T08:53:46.248Z,6.60
2022-08-30T08:56:48.650Z,6.10
2022-08-30T08:59:54.311Z,5.60
2022-08-30T09:03:03.268Z,5.80
2022-08-30T09:06:18.871Z,6.40
2022-08-30T09:09:24.286Z,5.40
2022-08-30T09:12:27.325Z,5.20
2022-08-30T09:15:33.025Z,4.90
2022-08-30T09:18:45.602Z,4.40
2022-08-30T09:21:57.641Z,4.60
2022-08-30T09:25:01.390Z,4.70
2022-08-30T09:28:13.065Z,4.80
2022-08-30T09:31:24.557Z,4.50
2022-08-30T09:34:32.842Z,4.40
2022-08-30T09:37:38.982Z,4.10
2022-08-30T09:40:47.284Z,4.50
2022-08-30T09:44:06.858Z,4.60
2022-08-30T09:47:24.292Z,5.00
2022-08-30T09:50:28.070Z,4.70
2022-08-30T09:53:34.871Z,4.90
2022-08-30T09:57:01.196Z,5.90
2022-08-30T10:00:19.129Z,5.80
2022-08-30T10:03:36.179Z,5.00
2022-08-30T10:06:54.639Z,4.20
2022-08-30T10:10:23.405Z,4.70
2022-08-30T10:14:07.136Z,4.40
2022-08-30T10:17:19.804Z,4.60
2022-08-30T10:20:41.964Z,4.60
2022-08-30T10:23:53.993Z,4.80
2022-08-30T10:27:42.577Z,5.10
2022-08-30T10:30:49.829Z,5.00
2022-08-30T10:33:57.578Z,4.90
2022-08-30T10:37:10.514Z,4.50
2022-08-30T10:40:43.789Z,4.60
2022-08-30T10:44:04.448Z,4.20
2022-08-30T10:47:30.028Z,4.80
2022-08-30T10:50:39.094Z,4.80
2022-08-30T10:54:00.080Z,4.60
2022-08-30T10:57:01.791Z,4.90
2022-08-30T11:00:09.108Z,4.40
2022-08-30T11:03:36.387Z,4.50
2022-08-30T11:06:46.816Z,4.80
2022-08-30T11:10:03.612Z,4.90
2022-08-30T11:13:16.265Z,4.80
2022-08-30T11:16:20.323Z,4.80
2022-08-30T11:19:43.532Z,6.10
2022-08-30T11:23:25.599Z,5.80
2022-08-30T11:26:46.986Z,5.10
2022-08-30T11:29:49.089Z,4.70
2022-08-30T11:33:12.978Z,4.60
2022-08-30T11:36:46.006Z,3.90
2022-08-30T11:39:48.261Z,4.10
2022-08-30T11:42:52.773Z,3.80
2022-08-30T11:46:26.095Z,3.30
2022-08-30T11:49:50.118Z,3.60
2022-08-30T11:53:32.531Z,3.10
2022-08-30T11:56:45.930Z,3.20
2022-08-30T12:00:06.954Z,3.70
2022-08-30T12:06:42.160Z,3.30
2022-08-30T12:09:45.367Z,3.40
2022-08-30T12:12:48.959Z,3.30
2022-08-30T12:15:57.808Z,3.10
2022-08-30T12:19:20.985Z,3.00
2022-08-30T12:22:22.941Z,3.10
2022-08-30T12:25:32.068Z,2.90
2022-08-30T12:28:33.897Z,3.40
2022-08-30T12:31:45.194Z,3.00
2022-08-30T12:34:49.864Z,3.30
2022-08-30T12:38:07.317Z,3.50
2022-08-30T12:41:18.721Z,2.80
2022-08-30T12:44:26.119Z,3.30
2022-08-30T12:47:51.205Z,3.00
2022-08-30T12:50:57.320Z,2.90
2022-08-30T12:54:05.304Z,2.90
2022-08-30T12:57:25.577Z,3.30
2022-08-30T13:00:35.400Z,3.00
2022-08-30T13:03:37.629Z,3.30
2022-08-30T13:06:56.439Z,3.00
2022-08-30T13:10:02.155Z,3.30
2022-08-30T13:13:06.200Z,3.90
2022-08-30T13:16:11.160Z,4.20
2022-08-30T13:19:35.961Z,3.30
2022-08-30T13:22:40.161Z,3.40
2022-08-30T13:25:41.996Z,4.70
2022-08-30T13:28:51.583Z,3.20
2022-08-30T13:31:53.794Z,3.30
2022-08-30T13:34:55.585Z,4.80
2022-08-30T13:37:58.150Z,3.50
2022-08-30T13:41:00.020Z,4.80
2022-08-30T13:44:13.516Z,4.90
2022-08-30T13:47:32.969Z,3.70
2022-08-30T13:50:35.395Z,3.60
2022-08-30T13:53:53.545Z,3.20
2022-08-30T13:56:56.270Z,4.20
2022-08-30T13:59:58.287Z,3.50
2022-08-30T14:03:02.215Z,3.70
2022-08-30T14:06:31.874Z,3.60
2022-08-30T14:09:27.652Z,3.40
2022-08-30T14:16:26.506Z,3.30
2022-08-30T14:19:15.481Z,3.30
2022-08-30T14:22:20.009Z,3.40
2022-08-30T14:25:21.915Z,3.20
2022-08-30T14:28:24.614Z,3.40
2022-08-30T14:31:26.595Z,3.90
2022-08-30T14:34:28.645Z,6.10
2022-08-30T14:37:30.596Z,3.40
2022-08-30T14:40:33.031Z,3.50
2022-08-30T14:43:34.866Z,3.90
2022-08-30T14:46:37.529Z,3.90
2022-08-30T14:49:39.562Z,3.40
2022-08-30T14:52:42.149Z,3.30
2022-08-30T14:55:47.314Z,3.10
2022-08-30T14:58:51.045Z,3.00
2022-08-30T15:01:53.079Z,3.20
2022-08-30T15:04:54.766Z,3.00
2022-08-30T15:07:56.748Z,3.10
2022-08-30T15:10:59.641Z,3.30
2022-08-30T15:14:01.944Z,3.00
2022-08-30T15:17:04.101Z,3.20
2022-08-30T15:20:10.307Z,3.30
2022-08-30T15:23:12.440Z,3.00
2022-08-30T15:26:19.755Z,3.30
2022-08-30T15:29:21.571Z,3.20
2022-08-30T15:32:23.947Z,3.20
2022-08-30T15:35:28.035Z,3.50
2022-08-30T15:38:29.863Z,3.60
2022-08-30T15:41:31.684Z,4.10
2022-08-30T15:44:34.517Z,3.80
2022-08-30T15:47:36.445Z,4.20
2022-08-30T15:50:38.348Z,3.90
2022-08-30T15:53:43.159Z,3.80
2022-08-30T15:56:45.646Z,3.70
2022-08-30T15:59:50.302Z,4.00
2022-08-30T16:02:53.177Z,4.20
2022-08-30T16:05:55.129Z,4.30
2022-08-30T16:08:57.624Z,4.00
2022-08-30T16:12:00.340Z,4.10
2022-08-30T16:15:02.718Z,4.20
2022-08-30T16:18:04.622Z,4.00
2022-08-30T16:21:21.096Z,4.20
2022-08-30T16:24:23.516Z,4.50
2022-08-30T16:27:25.235Z,5.90
2022-08-30T16:30:26.955Z,6.80
2022-08-30T16:33:30.481Z,9.60
2022-08-30T16:36:35.987Z,11.40
2022-08-30T16:39:37.821Z,12.10
2022-08-30T16:42:40.801Z,10.90
2022-08-30T16:45:43.488Z,10.30
2022-08-30T16:48:45.743Z,10.30
2022-08-30T16:51:47.574Z,7.60
2022-08-30T16:54:52.310Z,6.70
2022-08-30T16:57:54.198Z,5.80
2022-08-30T17:00:56.018Z,5.80
2022-08-30T17:03:58.036Z,5.60
2022-08-30T17:06:59.908Z,5.20
2022-08-30T17:10:03.879Z,5.60
2022-08-30T17:13:05.656Z,5.40
2022-08-30T17:16:08.164Z,5.60
2022-08-30T17:19:11.727Z,6.40
2022-08-30T17:22:14.050Z,6.70
2022-08-30T17:25:16.268Z,6.70
2022-08-30T17:28:18.351Z,6.50
2022-08-30T17:31:23.735Z,6.40
2022-08-30T17:34:27.499Z,7.40
2022-08-30T17:37:29.825Z,7.80
2022-08-30T17:40:31.826Z,7.40
2022-08-30T17:43:35.377Z,6.10
2022-08-30T17:46:37.469Z,5.60
2022-08-30T17:49:39.476Z,5.90
2022-08-30T17:52:42.232Z,5.80
2022-08-30T17:55:49.152Z,5.70
2022-08-30T17:58:50.931Z,6.30
2022-08-30T18:01:55.149Z,6.10
2022-08-30T18:04:59.162Z,6.50
2022-08-30T18:08:01.209Z,6.40
2022-08-30T18:11:06.050Z,6.50
2022-08-30T18:14:11.028Z,6.10
2022-08-30T18:17:13.316Z,6.10
2022-08-30T18:20:16.440Z,6.20
2022-08-30T18:23:18.668Z,7.70
2022-08-30T18:26:27.766Z,7.50
2022-08-30T18:29:31.548Z,8.00
2022-08-30T18:32:36.017Z,8.20
2022-08-30T18:35:45.348Z,8.80
2022-08-30T18:38:49.761Z,8.20
2022-08-30T18:45:15.073Z,7.30
2022-08-30T18:48:17.445Z,8.00
2022-08-30T18:51:21.215Z,8.60
2022-08-30T18:54:23.653Z,10.30
2022-08-30T18:57:25.421Z,10.00
2022-08-30T19:00:27.404Z,9.60
2022-08-30T19:03:32.977Z,8.90
2022-08-30T19:06:36.045Z,9.20
2022-08-30T19:09:40.144Z,9.30
2022-08-30T19:12:41.983Z,9.30
2022-08-30T19:15:43.794Z,9.60
2022-08-30T19:18:46.241Z,8.60
2022-08-30T19:21:49.361Z,8.10
2022-08-30T19:24:51.824Z,7.30
2022-08-30T19:27:53.705Z,7.20
2022-08-30T19:30:55.408Z,7.40
2022-08-30T19:33:57.283Z,6.70
2022-08-30T19:36:59.102Z,6.90
2022-08-30T19:40:01.224Z,7.00
2022-08-30T19:43:04.654Z,7.10
2022-08-30T19:46:07.367Z,6.50
2022-08-30T19:49:11.295Z,6.80
2022-08-30T19:52:13.308Z,6.80
2022-08-30T19:55:15.537Z,6.90
2022-08-30T19:58:18.233Z,6.80
2022-08-30T20:01:32.731Z,6.60
2022-08-30T20:04:35.674Z,6.00
2022-08-30T20:07:37.845Z,6.20
2022-08-30T20:10:42.913Z,6.40
2022-08-30T20:13:44.803Z,5.80
2022-08-30T20:16:47.581Z,5.90
2022-08-30T20:19:49.302Z,6.20
2022-08-30T20:22:54.173Z,5.80
2022-08-30T20:24:28.550Z,7.80
2022-08-30T20:25:57.371Z,6.00
2022-08-30T20:29:00.159Z,6.20
2022-08-30T20:32:03.330Z,7.50
2022-08-30T20:35:06.878Z,7.10
2022-08-30T20:38:08.614Z,7.60
2022-08-30T20:41:12.583Z,7.40
2022-08-30T20:44:15.141Z,7.40
2022-08-30T20:47:17.502Z,6.80
2022-08-30T20:50:19.498Z,7.80
2022-08-30T20:53:21.216Z,8.40
2022-08-30T20:56:23.239Z,8.90
2022-08-30T20:59:24.972Z,10.20
2022-08-30T21:02:26.996Z,8.50
2022-08-30T21:05:28.978Z,9.00
2022-08-30T21:08:30.770Z,9.10
2022-08-30T21:11:34.559Z,9.90
2022-08-30T21:14:36.331Z,9.70
2022-08-30T21:17:38.057Z,9.30
2022-08-30T21:20:42.347Z,9.50
2022-08-30T21:23:44.386Z,7.60
2022-08-30T21:26:46.374Z,7.90
2022-08-30T21:29:48.880Z,8.10
2022-08-30T21:32:50.694Z,8.30
2022-08-30T21:36:11.062Z,8.40
2022-08-30T21:39:29.728Z,9.00
2022-08-30T21:42:32.304Z,8.10
2022-08-30T21:45:39.003Z,8.80
2022-08-30T21:48:40.785Z,11.50
2022-08-30T21:51:44.891Z,9.70
2022-08-30T21:54:46.853Z,9.30
2022-08-30T21:57:48.716Z,8.50
2022-08-30T22:00:50.557Z,9.90
2022-08-30T22:03:54.416Z,9.50
2022-08-30T22:06:56.417Z,9.20
2022-08-30T22:09:58.679Z,8.40
2022-08-30T22:13:00.777Z,9.40
2022-08-30T22:16:03.058Z,7.90
2022-08-30T22:19:04.860Z,9.20
2022-08-30T22:22:07.058Z,9.10
2022-08-30T22:25:09.310Z,9.40
2022-08-30T22:28:11.193Z,9.30
2022-08-30T22:31:15.447Z,9.40
2022-08-30T22:34:17.867Z,9.50
2022-08-30T22:37:19.615Z,8.70
2022-08-30T22:40:21.589Z,9.50
2022-08-30T22:43:23.470Z,7.70
2022-08-30T22:46:34.341Z,8.90
2022-08-30T22:52:38.879Z,8.60
2022-08-30T22:55:41.369Z,9.30
2022-08-30T22:58:44.245Z,9.00
2022-08-30T23:01:47.258Z,8.70
2022-08-30T23:05:09.275Z,9.50
2022-08-30T23:08:11.266Z,10.10
2022-08-30T23:11:13.624Z,10.10
2022-08-30T23:14:15.478Z,10.20
2022-08-30T23:17:17.204Z,10.80
2022-08-30T23:20:19.128Z,9.30
2022-08-30T23:23:39.663Z,10.70
2022-08-30T23:27:01.852Z,9.90
2022-08-30T23:30:25.387Z,9.80
2022-08-30T23:33:46.025Z,9.40
2022-08-30T23:37:06.542Z,10.40
2022-08-30T23:40:27.850Z,10.60
2022-08-30T23:43:48.418Z,10.80
2022-08-30T23:47:08.870Z,9.40
2022-08-30T23:50:29.317Z,7.40
2022-08-30T23:53:49.665Z,10.40
2022-08-30T23:57:10.520Z,11.10
